createdAt,value
2024-04-19T00:00:20.068Z,76.93
2024-04-19T00:01:20.105Z,76.93
2024-04-19T00:02:20.057Z,77.03
2024-04-19T00:03:20.156Z,77.34
2024-04-19T00:04:20.120Z,77.55
2024-04-19T00:05:20.021Z,77.55
2024-04-19T00:06:20.016Z,77.96
2024-04-19T00:07:19.963Z,77.96
2024-04-19T00:08:19.970Z,77.96
2024-04-19T00:09:20.022Z,77.75
2024-04-19T00:10:19.951Z,77.14
2024-04-19T00:11:19.949Z,77.34
2024-04-19T00:12:19.964Z,77.45
2024-04-19T00:13:19.895Z,77.65
2024-04-19T00:14:19.919Z,77.65
2024-04-19T00:15:19.883Z,77.55
2024-04-19T00:16:19.931Z,77.65
2024-04-19T00:17:19.853Z,77.45
2024-04-19T00:18:19.883Z,77.75
2024-04-19T00:19:19.934Z,77.75
2024-04-19T00:20:19.845Z,78.27
2024-04-19T00:21:19.938Z,78.06
2024-04-19T00:22:19.801Z,77.55
2024-04-19T00:23:19.811Z,77.75
2024-04-19T00:24:19.843Z,77.65
2024-04-19T00:25:19.800Z,77.14
2024-04-19T00:26:19.774Z,77.14
2024-04-19T00:27:19.824Z,76.93
2024-04-19T00:28:19.749Z,77.24
2024-04-19T00:29:19.757Z,77.51
2024-04-19T00:30:19.825Z,77.92
2024-04-19T00:31:19.716Z,78.03
2024-04-19T00:32:19.724Z,78.13
2024-04-19T00:33:19.764Z,77.72
2024-04-19T00:34:19.895Z,77.51
2024-04-19T00:35:19.668Z,77.31
2024-04-19T00:36:19.691Z,77.51
2024-04-19T00:37:19.635Z,77.72
2024-04-19T00:38:19.623Z,77.82
2024-04-19T00:39:19.672Z,77.51
2024-04-19T00:40:19.644Z,77.41
2024-04-19T00:41:19.630Z,77.51
2024-04-19T00:42:19.675Z,77.92
2024-04-19T00:43:19.585Z,78.03
2024-04-19T00:44:19.589Z,78.13
2024-04-19T00:45:19.572Z,77.72
2024-04-19T00:46:19.559Z,77.10
2024-04-19T00:47:19.573Z,77.10
2024-04-19T00:48:19.727Z,77.41
2024-04-19T00:49:19.519Z,77.41
2024-04-19T00:50:19.497Z,77.00
2024-04-19T00:51:19.552Z,77.31
2024-04-19T00:52:19.475Z,77.00
2024-04-19T00:53:19.463Z,77.10
2024-04-19T00:54:19.488Z,77.00
2024-04-19T00:55:19.451Z,77.51
2024-04-19T00:56:19.460Z,77.62
2024-04-19T00:57:19.443Z,78.06
2024-04-19T00:58:19.406Z,77.55
2024-04-19T00:59:19.406Z,77.55
2024-04-19T01:00:19.549Z,77.75
2024-04-19T01:01:19.623Z,77.55
2024-04-19T01:02:19.452Z,77.75
2024-04-19T01:03:19.404Z,77.75
2024-04-19T01:04:19.441Z,78.41
2024-04-19T01:05:19.344Z,78.61
2024-04-19T01:06:19.360Z,78.72
2024-04-19T01:07:19.312Z,78.72
2024-04-19T01:08:19.299Z,78.92
2024-04-19T01:09:19.351Z,78.72
2024-04-19T01:10:19.276Z,78.20
2024-04-19T01:11:19.305Z,78.20
2024-04-19T01:12:19.274Z,78.51
2024-04-19T01:13:19.239Z,79.03
2024-04-19T01:14:19.268Z,78.92
2024-04-19T01:15:19.276Z,78.20
2024-04-19T01:16:19.225Z,78.30
2024-04-19T01:17:19.242Z,78.51
2024-04-19T01:18:19.289Z,78.51
2024-04-19T01:19:19.273Z,78.30
2024-04-19T01:20:19.171Z,78.61
2024-04-19T01:21:19.189Z,78.51
2024-04-19T01:22:19.158Z,78.82
2024-04-19T01:23:19.143Z,79.13
2024-04-19T01:24:19.147Z,78.72
2024-04-19T01:25:19.116Z,78.41
2024-04-19T01:26:19.079Z,78.41
2024-04-19T01:27:19.113Z,78.41
2024-04-19T01:28:19.107Z,78.61
2024-04-19T01:29:19.065Z,78.82
2024-04-19T01:30:19.120Z,78.30
2024-04-19T01:31:19.054Z,78.00
2024-04-19T01:32:19.082Z,78.82
2024-04-19T01:33:19.192Z,78.92
2024-04-19T01:34:19.254Z,78.72
2024-04-19T01:35:19.006Z,78.72
2024-04-19T01:36:19.046Z,79.13
2024-04-19T01:37:18.987Z,78.72
2024-04-19T01:38:18.971Z,78.41
2024-04-19T01:39:18.985Z,78.10
2024-04-19T01:40:18.968Z,78.20
2024-04-19T01:41:18.935Z,78.61
2024-04-19T01:42:19.014Z,79.23
2024-04-19T01:43:18.928Z,78.82
2024-04-19T01:44:18.935Z,78.51
2024-04-19T01:45:18.953Z,78.20
2024-04-19T01:46:18.900Z,78.51
2024-04-19T01:47:19.031Z,78.41
2024-04-19T01:48:18.988Z,78.92
2024-04-19T01:49:18.884Z,79.03
2024-04-19T01:50:18.871Z,79.33
2024-04-19T01:51:18.828Z,78.72
2024-04-19T01:52:18.824Z,78.92
2024-04-19T01:53:18.819Z,79.23
2024-04-19T01:54:18.877Z,78.82
2024-04-19T01:55:19.026Z,79.23
2024-04-19T01:56:18.782Z,79.75
2024-04-19T01:57:18.810Z,80.09
2024-04-19T01:58:18.760Z,79.68
2024-04-19T01:59:18.737Z,79.47
2024-04-19T02:00:18.774Z,79.58
2024-04-19T02:01:18.759Z,79.58
2024-04-19T02:02:18.833Z,79.88
2024-04-19T02:03:18.719Z,80.09
2024-04-19T02:04:18.758Z,79.99
2024-04-19T02:05:18.682Z,80.30
2024-04-19T02:06:18.687Z,80.91
2024-04-19T02:07:18.664Z,81.23
2024-04-19T02:08:18.647Z,81.43
2024-04-19T02:09:18.633Z,81.33
2024-04-19T02:10:18.665Z,81.43
2024-04-19T02:11:18.616Z,81.74
2024-04-19T02:12:18.635Z,81.53
2024-04-19T02:13:18.593Z,81.57
2024-04-19T02:14:18.607Z,81.67
2024-04-19T02:15:18.676Z,81.88
2024-04-19T02:16:18.578Z,81.67
2024-04-19T02:17:18.577Z,81.98
2024-04-19T02:18:18.611Z,81.77
2024-04-19T02:19:18.522Z,81.98
2024-04-19T02:20:18.545Z,82.50
2024-04-19T02:21:18.530Z,82.40
2024-04-19T02:22:18.503Z,82.19
2024-04-19T02:23:18.483Z,82.40
2024-04-19T02:24:18.502Z,82.50
2024-04-19T02:25:18.492Z,82.70
2024-04-19T02:26:18.431Z,82.60
2024-04-19T02:27:18.610Z,82.91
2024-04-19T02:28:18.424Z,82.81
2024-04-19T02:29:18.423Z,82.91
2024-04-19T02:30:18.453Z,82.91
2024-04-19T02:31:18.389Z,82.70
2024-04-19T02:32:18.396Z,82.91
2024-04-19T02:33:18.462Z,82.81
2024-04-19T02:34:18.424Z,83.05
2024-04-19T02:35:18.354Z,83.05
2024-04-19T02:36:18.511Z,83.26
2024-04-19T02:37:18.317Z,83.26
2024-04-19T02:38:18.332Z,83.36
2024-04-19T02:39:18.357Z,83.77
2024-04-19T02:40:18.317Z,83.56
2024-04-19T02:41:18.319Z,83.47
2024-04-19T02:42:18.298Z,83.26
2024-04-19T02:43:18.275Z,83.36
2024-04-19T02:44:18.251Z,83.47
2024-04-19T02:45:18.350Z,83.36
2024-04-19T02:46:18.512Z,83.36
2024-04-19T02:47:18.236Z,83.56
2024-04-19T02:48:18.215Z,83.47
2024-04-19T02:49:18.212Z,83.36
2024-04-19T02:50:18.209Z,83.47
2024-04-19T02:51:18.240Z,83.05
2024-04-19T02:52:18.179Z,83.26
2024-04-19T02:53:18.177Z,83.47
2024-04-19T02:54:18.173Z,83.15
2024-04-19T02:55:18.155Z,82.95
2024-04-19T02:56:18.151Z,83.47
2024-04-19T02:57:18.146Z,83.77
2024-04-19T02:58:18.113Z,83.77
2024-04-19T02:59:18.107Z,83.87
2024-04-19T03:00:18.142Z,83.56
2024-04-19T03:01:18.106Z,83.26
2024-04-19T03:02:18.055Z,83.77
2024-04-19T03:03:18.198Z,83.98
2024-04-19T03:04:18.088Z,83.77
2024-04-19T03:05:18.060Z,83.67
2024-04-19T03:06:18.137Z,83.98
2024-04-19T03:07:18.059Z,83.87
2024-04-19T03:08:17.994Z,83.98
2024-04-19T03:09:18.058Z,83.56
2024-04-19T03:10:18.011Z,83.67
2024-04-19T03:11:18.048Z,83.56
2024-04-19T03:12:18.118Z,83.47
2024-04-19T03:13:18.094Z,83.47
2024-04-19T03:14:18.028Z,83.56
2024-04-19T03:15:18.146Z,83.05
2024-04-19T03:16:17.950Z,83.15
2024-04-19T03:17:17.940Z,83.26
2024-04-19T03:18:18.013Z,83.05
2024-04-19T03:19:17.870Z,82.95
2024-04-19T03:20:17.872Z,82.74
2024-04-19T03:21:17.896Z,83.05
2024-04-19T03:22:17.850Z,83.05
2024-04-19T03:23:17.833Z,82.64
2024-04-19T03:24:17.823Z,82.54
2024-04-19T03:25:17.792Z,82.74
2024-04-19T03:26:17.819Z,82.43
2024-04-19T03:27:17.812Z,82.64
2024-04-19T03:28:17.780Z,82.64
2024-04-19T03:29:17.740Z,82.02
2024-04-19T03:30:17.776Z,81.61
2024-04-19T03:31:17.716Z,82.02
2024-04-19T03:32:17.749Z,81.92
2024-04-19T03:33:17.960Z,81.61
2024-04-19T03:34:17.739Z,82.12
2024-04-19T03:35:17.741Z,82.02
2024-04-19T03:36:17.704Z,81.30
2024-04-19T03:37:17.676Z,81.61
2024-04-19T03:38:17.639Z,81.92
2024-04-19T03:39:17.692Z,81.81
2024-04-19T03:40:17.635Z,81.61
2024-04-19T03:41:17.610Z,81.81
2024-04-19T03:42:17.728Z,81.40
2024-04-19T03:43:17.617Z,80.99
2024-04-19T03:44:17.571Z,81.20
2024-04-19T03:45:17.592Z,81.61
2024-04-19T03:46:17.572Z,81.20
2024-04-19T03:47:17.603Z,81.09
2024-04-19T03:48:18.611Z,81.40
2024-04-19T03:49:17.520Z,81.51
2024-04-19T03:50:17.524Z,80.47
2024-04-19T03:51:17.520Z,81.09
2024-04-19T03:52:17.530Z,81.09
2024-04-19T03:53:17.496Z,81.51
2024-04-19T03:54:17.518Z,81.20
2024-04-19T03:55:17.463Z,80.79
2024-04-19T03:56:17.451Z,80.99
2024-04-19T03:57:17.514Z,81.09
2024-04-19T03:58:17.416Z,81.20
2024-04-19T03:59:17.439Z,80.58
2024-04-19T04:00:17.487Z,80.58
2024-04-19T04:01:17.437Z,81.20
2024-04-19T04:02:17.463Z,81.30
2024-04-19T04:03:17.508Z,81.30
2024-04-19T04:04:17.366Z,81.20
2024-04-19T04:05:17.344Z,79.65
2024-04-19T04:06:17.404Z,79.55
2024-04-19T04:07:17.379Z,80.16
2024-04-19T04:08:17.322Z,80.47
2024-04-19T04:09:17.336Z,80.79
2024-04-19T04:10:17.299Z,80.79
2024-04-19T04:11:17.318Z,80.58
2024-04-19T04:12:17.339Z,80.23
2024-04-19T04:13:17.251Z,80.54
2024-04-19T04:14:17.247Z,80.33
2024-04-19T04:15:17.237Z,80.23
2024-04-19T04:16:17.223Z,79.82
2024-04-19T04:17:17.300Z,79.61
2024-04-19T04:18:17.475Z,79.82
2024-04-19T04:19:20.446Z,80.13
2024-04-19T04:20:17.179Z,80.75
2024-04-19T04:21:17.160Z,81.05
2024-04-19T04:22:17.215Z,80.85
2024-04-19T04:23:17.166Z,81.05
2024-04-19T04:24:17.147Z,80.75
2024-04-19T04:25:17.115Z,80.13
2024-04-19T04:26:17.104Z,80.33
2024-04-19T04:27:17.162Z,80.54
2024-04-19T04:28:17.152Z,80.33
2024-04-19T04:29:17.093Z,80.44
2024-04-19T04:30:17.117Z,80.54
2024-04-19T04:31:17.076Z,81.16
2024-04-19T04:32:17.159Z,80.95
2024-04-19T04:33:17.053Z,80.23
2024-04-19T04:34:17.067Z,80.75
2024-04-19T04:35:17.048Z,80.95
2024-04-19T04:36:17.013Z,80.95
2024-04-19T04:37:17.051Z,80.54
2024-04-19T04:38:17.026Z,80.02
2024-04-19T04:39:17.021Z,80.71
2024-04-19T04:40:17.005Z,81.12
2024-04-19T04:41:16.969Z,81.02
2024-04-19T04:42:17.040Z,80.91
2024-04-19T04:43:16.980Z,80.09
2024-04-19T04:44:16.941Z,80.71
2024-04-19T04:45:16.956Z,79.79
2024-04-19T04:46:16.910Z,80.71
2024-04-19T04:47:17.076Z,81.23
2024-04-19T04:48:16.989Z,80.91
2024-04-19T04:49:16.952Z,80.71
2024-04-19T04:50:23.677Z,80.71
2024-04-19T04:51:16.957Z,80.71
2024-04-19T04:52:16.982Z,80.81
2024-04-19T04:53:16.843Z,80.71
2024-04-19T04:54:16.902Z,80.61
2024-04-19T04:55:16.861Z,80.51
2024-04-19T04:56:16.794Z,80.71
2024-04-19T04:57:16.855Z,80.40
2024-04-19T04:58:16.776Z,80.40
2024-04-19T04:59:16.869Z,79.99
2024-04-19T05:00:16.807Z,80.30
2024-04-19T05:01:16.826Z,80.19
2024-04-19T05:02:16.762Z,80.71
2024-04-19T05:03:16.735Z,79.88
2024-04-19T05:04:16.745Z,79.79
2024-04-19T05:05:16.718Z,79.85
2024-04-19T05:06:16.719Z,79.64
2024-04-19T05:07:16.699Z,80.26
2024-04-19T05:08:16.681Z,80.05
2024-04-19T05:09:16.673Z,79.75
2024-04-19T05:10:16.674Z,80.47
2024-04-19T05:11:16.738Z,81.09
2024-04-19T05:12:16.724Z,80.77
2024-04-19T05:13:16.591Z,80.88
2024-04-19T05:14:16.583Z,80.05
2024-04-19T05:15:16.679Z,80.47
2024-04-19T05:16:16.583Z,79.64
2024-04-19T05:17:16.639Z,80.88
2024-04-19T05:18:16.660Z,81.09
2024-04-19T05:19:16.556Z,81.70
2024-04-19T05:20:16.527Z,81.09
2024-04-19T05:21:16.533Z,82.83
2024-04-19T05:22:16.582Z,84.38
2024-04-19T05:23:16.508Z,83.97
2024-04-19T05:24:16.523Z,83.76
2024-04-19T05:25:16.470Z,82.97
2024-04-19T05:26:16.482Z,83.97
2024-04-19T05:27:16.496Z,83.59
2024-04-19T05:28:16.474Z,82.67
2024-04-19T05:29:16.461Z,83.49
2024-04-19T05:30:16.486Z,84.21
2024-04-19T05:31:16.420Z,83.28
2024-04-19T05:32:16.511Z,85.34
2024-04-19T05:33:16.487Z,86.37
2024-04-19T05:34:16.411Z,86.47
2024-04-19T05:35:16.392Z,86.68
2024-04-19T05:36:16.409Z,86.64
2024-04-19T05:37:16.391Z,86.85
2024-04-19T05:38:16.363Z,86.64
2024-04-19T05:39:16.377Z,86.43
2024-04-19T05:40:16.362Z,86.64
2024-04-19T05:41:16.348Z,86.85
2024-04-19T05:42:16.395Z,85.71
2024-04-19T05:43:16.304Z,86.54
2024-04-19T05:44:16.287Z,85.61
2024-04-19T05:45:16.363Z,86.85
2024-04-19T05:46:16.323Z,86.95
2024-04-19T05:47:16.298Z,86.85
2024-04-19T05:48:19.440Z,87.05
2024-04-19T05:49:16.285Z,87.42
2024-04-19T05:50:16.232Z,87.52
2024-04-19T05:51:16.285Z,86.80
2024-04-19T05:52:16.256Z,86.70
2024-04-19T05:53:16.210Z,86.91
2024-04-19T05:54:16.330Z,86.91
2024-04-19T05:55:16.235Z,86.50
2024-04-19T05:56:16.182Z,85.57
2024-04-19T05:57:16.440Z,84.64
2024-04-19T05:58:16.350Z,85.06
2024-04-19T05:59:16.118Z,83.72
2024-04-19T06:00:16.136Z,84.54
2024-04-19T06:01:16.257Z,85.02
2024-04-19T06:02:16.138Z,85.33
2024-04-19T06:03:16.197Z,85.43
2024-04-19T06:04:16.147Z,85.63
2024-04-19T06:05:16.050Z,85.84
2024-04-19T06:06:16.686Z,85.53
2024-04-19T06:07:16.153Z,84.91
2024-04-19T06:08:16.054Z,85.33
2024-04-19T06:09:16.032Z,85.84
2024-04-19T06:10:16.008Z,84.61
2024-04-19T06:11:16.083Z,84.20
2024-04-19T06:12:16.007Z,84.71
2024-04-19T06:13:25.685Z,84.75
2024-04-19T06:14:16.125Z,84.03
2024-04-19T06:15:16.095Z,84.23
2024-04-19T06:16:15.937Z,84.09
2024-04-19T06:17:15.921Z,85.74
2024-04-19T06:18:16.052Z,85.63
2024-04-19T06:19:15.926Z,84.30
2024-04-19T06:20:15.940Z,84.20
2024-04-19T06:21:15.960Z,84.91
2024-04-19T06:22:15.860Z,83.99
2024-04-19T06:23:15.877Z,84.30
2024-04-19T06:24:15.849Z,83.78
2024-04-19T06:25:15.894Z,83.06
2024-04-19T06:26:15.864Z,83.06
2024-04-19T06:27:15.855Z,82.86
2024-04-19T06:28:15.818Z,82.96
2024-04-19T06:29:15.809Z,82.34
2024-04-19T06:30:15.881Z,82.62
2024-04-19T06:31:16.796Z,84.16
2024-04-19T06:32:15.809Z,81.69
2024-04-19T06:33:15.850Z,81.90
2024-04-19T06:34:15.750Z,81.69
2024-04-19T06:35:15.764Z,82.45
2024-04-19T06:36:15.786Z,83.27
2024-04-19T06:37:15.715Z,84.20
2024-04-19T06:38:15.729Z,83.64
2024-04-19T06:39:15.728Z,83.48
2024-04-19T06:40:15.727Z,83.78
2024-04-19T06:41:15.750Z,84.71
2024-04-19T06:42:15.808Z,84.40
2024-04-19T06:43:15.696Z,84.30
2024-04-19T06:44:15.663Z,83.99
2024-04-19T06:45:15.663Z,84.20
2024-04-19T06:46:15.611Z,83.37
2024-04-19T06:47:15.603Z,83.58
2024-04-19T06:48:15.765Z,83.89
2024-04-19T06:49:15.628Z,80.22
2024-04-19T06:50:15.623Z,81.87
2024-04-19T06:51:15.634Z,82.11
2024-04-19T06:52:15.607Z,81.19
2024-04-19T06:53:15.702Z,83.35
2024-04-19T06:54:15.587Z,84.79
2024-04-19T06:55:15.602Z,82.21
2024-04-19T06:56:15.544Z,83.97
2024-04-19T06:57:15.567Z,84.99
2024-04-19T06:58:15.560Z,83.14
2024-04-19T06:59:15.528Z,83.45
2024-04-19T07:00:27.401Z,84.48
2024-04-19T07:01:18.320Z,85.41
2024-04-19T07:02:15.524Z,84.38
2024-04-19T07:03:15.578Z,84.99
2024-04-19T07:04:15.587Z,85.30
2024-04-19T07:05:15.496Z,84.48
2024-04-19T07:06:23.486Z,85.61
2024-04-19T07:07:15.460Z,86.13
2024-04-19T07:08:15.392Z,86.33
2024-04-19T07:09:15.492Z,86.33
2024-04-19T07:10:15.347Z,85.82
2024-04-19T07:11:15.322Z,85.51
2024-04-19T07:12:15.493Z,83.97
2024-04-19T07:13:15.393Z,85.30
2024-04-19T07:14:15.304Z,84.07
2024-04-19T07:15:15.421Z,83.59
2024-04-19T07:16:15.353Z,84.31
2024-04-19T07:17:15.310Z,84.42
2024-04-19T07:18:15.323Z,84.62
2024-04-19T07:19:15.289Z,85.65
2024-04-19T07:20:15.228Z,86.06
2024-04-19T07:21:15.451Z,84.93
2024-04-19T07:22:15.244Z,85.65
2024-04-19T07:23:21.282Z,86.54
2024-04-19T07:24:15.276Z,85.51
2024-04-19T07:25:15.183Z,86.23
2024-04-19T07:26:15.220Z,85.20
2024-04-19T07:27:15.280Z,84.48
2024-04-19T07:28:15.199Z,86.13
2024-04-19T07:29:17.176Z,84.58
2024-04-19T07:30:15.291Z,85.30
2024-04-19T07:31:15.114Z,85.10
2024-04-19T07:32:15.178Z,85.30
2024-04-19T07:33:15.141Z,85.92
2024-04-19T07:34:15.087Z,86.74
2024-04-19T07:35:15.082Z,86.79
2024-04-19T07:36:15.072Z,86.33
2024-04-19T07:37:15.073Z,87.05
2024-04-19T07:38:15.060Z,85.82
2024-04-19T07:39:15.044Z,86.13
2024-04-19T07:40:15.023Z,86.13
2024-04-19T07:41:16.595Z,85.61
2024-04-19T07:42:15.013Z,86.23
2024-04-19T07:43:15.000Z,86.43
2024-04-19T07:44:15.029Z,85.71
2024-04-19T07:45:14.962Z,85.47
2024-04-19T07:46:14.974Z,85.98
2024-04-19T07:47:14.951Z,86.19
2024-04-19T07:48:15.080Z,86.08
2024-04-19T07:49:14.983Z,85.26
2024-04-19T07:50:14.955Z,84.44
2024-04-19T07:51:14.922Z,85.57
2024-04-19T07:52:14.916Z,84.81
2024-04-19T07:53:14.904Z,84.09
2024-04-19T07:54:21.674Z,84.09
2024-04-19T07:55:15.060Z,84.91
2024-04-19T07:56:14.995Z,86.66
2024-04-19T07:57:14.820Z,85.63
2024-04-19T07:58:14.838Z,85.53
2024-04-19T07:59:14.843Z,85.02
2024-04-19T08:00:14.907Z,83.27
2024-04-19T08:01:14.890Z,83.17
2024-04-19T08:02:14.822Z,85.02
2024-04-19T08:03:14.811Z,84.50
2024-04-19T08:04:14.916Z,85.43
2024-04-19T08:05:14.732Z,85.22
2024-04-19T08:06:14.806Z,84.20
2024-04-19T08:07:23.569Z,82.86
2024-04-19T08:08:14.749Z,82.86
2024-04-19T08:09:15.105Z,83.51
2024-04-19T08:10:14.715Z,84.34
2024-04-19T08:11:14.768Z,84.23
2024-04-19T08:12:14.687Z,83.31
2024-04-19T08:13:14.714Z,85.26
2024-04-19T08:14:14.683Z,84.85
2024-04-19T08:15:14.650Z,85.47
2024-04-19T08:16:14.783Z,86.19
2024-04-19T08:17:14.672Z,85.98
2024-04-19T08:18:14.641Z,85.47
2024-04-19T08:19:14.579Z,85.06
2024-04-19T08:20:14.598Z,85.78
2024-04-19T08:21:14.584Z,85.36
2024-04-19T08:22:14.573Z,86.29
2024-04-19T08:23:15.015Z,86.33
2024-04-19T08:24:14.577Z,86.43
2024-04-19T08:25:14.527Z,86.02
2024-04-19T08:26:14.561Z,86.13
2024-04-19T08:27:14.576Z,85.82
2024-04-19T08:28:14.541Z,85.51
2024-04-19T08:29:22.156Z,85.61
2024-04-19T08:30:14.516Z,85.10
2024-04-19T08:31:14.532Z,85.92
2024-04-19T08:32:14.492Z,86.74
2024-04-19T08:33:14.468Z,86.64
2024-04-19T08:34:14.529Z,86.33
2024-04-19T08:35:14.428Z,86.02
2024-04-19T08:36:14.410Z,86.23
2024-04-19T08:37:14.416Z,87.67
2024-04-19T08:38:14.406Z,87.15
2024-04-19T08:39:14.438Z,86.54
2024-04-19T08:40:14.403Z,86.64
2024-04-19T08:41:14.392Z,86.02
2024-04-19T08:42:14.384Z,87.01
2024-04-19T08:43:14.339Z,87.73
2024-04-19T08:44:14.348Z,87.42
2024-04-19T08:45:14.473Z,87.63
2024-04-19T08:46:14.445Z,87.12
2024-04-19T08:47:14.274Z,87.12
2024-04-19T08:48:14.316Z,86.29
2024-04-19T08:49:14.339Z,87.12
2024-04-19T08:50:17.114Z,87.42
2024-04-19T08:51:17.917Z,87.22
2024-04-19T08:52:29.955Z,87.63
2024-04-19T08:53:16.091Z,86.91
2024-04-19T08:54:14.242Z,87.18
2024-04-19T08:55:14.281Z,87.07
2024-04-19T08:56:14.216Z,87.07
2024-04-19T08:57:14.227Z,86.97
2024-04-19T08:58:14.291Z,87.18
2024-04-19T08:59:14.180Z,88.10
2024-04-19T09:00:16.052Z,88.62
2024-04-19T09:01:14.241Z,87.90
2024-04-19T09:02:15.158Z,87.28
2024-04-19T09:03:14.230Z,86.46
2024-04-19T09:04:15.514Z,86.97
2024-04-19T09:05:14.104Z,87.18
2024-04-19T09:06:14.111Z,87.90
2024-04-19T09:07:14.080Z,87.79
2024-04-19T09:08:14.109Z,87.34
2024-04-19T09:09:14.050Z,86.11
2024-04-19T09:10:14.076Z,85.70
2024-04-19T09:11:14.132Z,86.32
2024-04-19T09:12:14.045Z,85.39
2024-04-19T09:13:14.012Z,86.52
2024-04-19T09:14:14.028Z,86.21
2024-04-19T09:15:14.039Z,86.00
2024-04-19T09:16:13.982Z,86.52
2024-04-19T09:17:13.997Z,86.42
2024-04-19T09:18:14.019Z,85.90
2024-04-19T09:19:13.928Z,86.72
2024-04-19T09:20:14.002Z,86.72
2024-04-19T09:21:13.976Z,86.21
2024-04-19T09:22:13.949Z,87.04
2024-04-19T09:23:13.932Z,87.75
2024-04-19T09:24:14.723Z,87.40
2024-04-19T09:25:13.883Z,87.71
2024-04-19T09:26:13.889Z,87.92
2024-04-19T09:27:16.060Z,87.92
2024-04-19T09:28:13.879Z,87.40
2024-04-19T09:29:13.837Z,88.12
2024-04-19T09:30:13.839Z,88.12
2024-04-19T09:31:13.826Z,88.02
2024-04-19T09:32:13.857Z,88.12
2024-04-19T09:33:13.920Z,88.43
2024-04-19T09:34:13.826Z,88.43
2024-04-19T09:35:13.788Z,88.53
2024-04-19T09:36:13.760Z,87.92
2024-04-19T09:37:13.766Z,86.89
2024-04-19T09:38:13.754Z,87.92
2024-04-19T09:39:13.746Z,88.23
2024-04-19T09:40:13.776Z,88.43
2024-04-19T09:41:13.703Z,88.64
2024-04-19T09:42:13.740Z,89.15
2024-04-19T09:43:13.757Z,89.46
2024-04-19T09:44:13.700Z,89.66
2024-04-19T09:45:13.690Z,89.15
2024-04-19T09:46:13.722Z,88.27
2024-04-19T09:47:13.669Z,87.45
2024-04-19T09:48:13.641Z,89.40
2024-04-19T09:49:13.633Z,90.12
2024-04-19T09:50:13.636Z,90.42
2024-04-19T09:51:13.612Z,90.59
2024-04-19T09:52:13.596Z,91.31
2024-04-19T09:53:13.579Z,91.20
2024-04-19T09:54:14.048Z,91.10
2024-04-19T09:55:13.596Z,90.18
2024-04-19T09:56:13.566Z,90.18
2024-04-19T09:57:13.534Z,90.28
2024-04-19T09:58:13.550Z,88.64
2024-04-19T09:59:13.511Z,88.23
2024-04-19T10:00:13.542Z,88.53
2024-04-19T10:01:13.566Z,88.23
2024-04-19T10:02:20.799Z,89.25
2024-04-19T10:03:13.620Z,88.43
2024-04-19T10:04:13.540Z,89.04
2024-04-19T10:05:13.471Z,88.74
2024-04-19T10:06:13.480Z,89.15
2024-04-19T10:07:13.437Z,88.98
2024-04-19T10:08:13.430Z,88.27
2024-04-19T10:09:13.411Z,88.57
2024-04-19T10:10:13.434Z,89.19
2024-04-19T10:11:13.419Z,89.60
2024-04-19T10:12:13.379Z,89.91
2024-04-19T10:13:13.399Z,89.81
2024-04-19T10:14:13.351Z,89.40
2024-04-19T10:15:13.352Z,89.91
2024-04-19T10:16:13.329Z,89.91
2024-04-19T10:17:13.356Z,89.70
2024-04-19T10:19:13.314Z,89.60
2024-04-19T10:20:13.340Z,90.48
2024-04-19T10:21:13.258Z,89.91
2024-04-19T10:22:13.260Z,89.40
2024-04-19T10:23:13.257Z,88.17
2024-04-19T10:24:15.578Z,88.37
2024-04-19T10:25:13.247Z,88.37
2024-04-19T10:26:13.234Z,87.45
2024-04-19T10:27:13.221Z,88.98
2024-04-19T10:28:13.205Z,90.63
2024-04-19T10:29:13.190Z,91.04
2024-04-19T10:30:18.386Z,91.35
2024-04-19T10:31:13.242Z,90.78
2024-04-19T10:32:13.157Z,90.47
2024-04-19T10:33:13.149Z,90.88
2024-04-19T10:34:13.166Z,91.19
2024-04-19T10:35:13.134Z,91.29
2024-04-19T10:36:13.114Z,90.06
2024-04-19T10:37:13.100Z,89.95
2024-04-19T10:38:13.080Z,89.13
2024-04-19T10:39:13.082Z,88.86
2024-04-19T10:40:13.089Z,90.20
2024-04-19T10:41:13.040Z,89.58
2024-04-19T10:42:13.059Z,89.38
2024-04-19T10:43:13.029Z,89.79
2024-04-19T10:44:12.996Z,88.35
2024-04-19T10:45:13.047Z,89.64
2024-04-19T10:46:13.013Z,89.44
2024-04-19T10:47:13.017Z,89.54
2024-04-19T10:48:13.018Z,88.62
2024-04-19T10:49:13.044Z,88.00
2024-04-19T10:50:12.965Z,87.90
2024-04-19T10:51:12.978Z,88.20
2024-04-19T10:52:12.943Z,88.72
2024-04-19T10:53:12.951Z,89.23
2024-04-19T10:54:12.922Z,88.82
2024-04-19T10:55:12.929Z,90.06
2024-04-19T10:56:12.961Z,89.64
2024-04-19T10:57:12.876Z,89.79
2024-04-19T10:58:12.895Z,90.06
2024-04-19T10:59:12.864Z,91.02
2024-04-19T11:00:12.866Z,90.81
2024-04-19T11:01:12.943Z,91.19
2024-04-19T11:02:12.822Z,91.80
2024-04-19T11:03:19.657Z,91.19
2024-04-19T11:04:13.152Z,90.98
2024-04-19T11:05:12.801Z,91.80
2024-04-19T11:06:14.619Z,91.91
2024-04-19T11:07:12.751Z,91.91
2024-04-19T11:08:12.756Z,90.36
2024-04-19T11:09:12.750Z,91.25
2024-04-19T11:10:12.741Z,91.14
2024-04-19T11:11:12.764Z,90.83
2024-04-19T11:12:12.707Z,90.73
2024-04-19T11:13:12.697Z,89.81
2024-04-19T11:14:12.696Z,89.50
2024-04-19T11:15:12.698Z,89.81
2024-04-19T11:16:12.690Z,89.15
2024-04-19T11:17:12.658Z,88.06
2024-04-19T11:18:12.692Z,88.27
2024-04-19T11:19:12.647Z,88.17
2024-04-19T11:20:12.639Z,88.78
2024-04-19T11:21:13.871Z,86.83
2024-04-19T11:22:12.599Z,87.34
2024-04-19T11:23:12.602Z,89.09
2024-04-19T11:24:12.559Z,89.60
2024-04-19T11:25:12.587Z,87.85
2024-04-19T11:26:12.581Z,88.06
2024-04-19T11:27:12.588Z,89.13
2024-04-19T11:28:12.553Z,90.06
2024-04-19T11:29:13.318Z,88.62
2024-04-19T11:30:12.507Z,88.51
2024-04-19T11:31:12.523Z,88.92
2024-04-19T11:32:12.558Z,88.31
2024-04-19T11:33:12.520Z,86.91
2024-04-19T11:34:12.451Z,88.96
2024-04-19T11:35:12.499Z,90.72
2024-04-19T11:36:12.459Z,91.85
2024-04-19T11:37:12.474Z,91.64
2024-04-19T11:38:12.432Z,89.73
2024-04-19T11:39:12.473Z,90.55
2024-04-19T11:40:13.707Z,90.96
2024-04-19T11:41:12.403Z,91.58
2024-04-19T11:42:12.405Z,92.20
2024-04-19T11:43:12.383Z,92.10
2024-04-19T11:44:12.370Z,92.61
2024-04-19T11:45:12.378Z,92.92
2024-04-19T11:46:12.319Z,92.92
2024-04-19T11:47:12.453Z,91.99
2024-04-19T11:48:12.414Z,92.10
2024-04-19T11:49:12.355Z,91.99
2024-04-19T11:50:12.330Z,92.40
2024-04-19T11:51:12.300Z,92.10
2024-04-19T11:52:12.274Z,92.10
2024-04-19T11:53:12.273Z,93.02
2024-04-19T11:54:12.280Z,92.82
2024-04-19T11:55:12.243Z,92.61
2024-04-19T11:56:12.236Z,93.12
2024-04-19T11:57:12.228Z,92.61
2024-04-19T11:58:12.206Z,92.61
2024-04-19T11:59:12.210Z,93.23
2024-04-19T12:00:12.165Z,93.95
2024-04-19T12:02:29.323Z,92.55
2024-04-19T12:03:30.470Z,92.76
2024-04-19T12:04:30.356Z,92.96
2024-04-19T12:05:30.280Z,92.76
2024-04-19T12:06:30.266Z,92.03
2024-04-19T12:07:30.118Z,92.86
2024-04-19T12:08:30.192Z,92.76
2024-04-19T12:09:30.144Z,92.76
2024-04-19T12:10:30.089Z,92.86
2024-04-19T12:11:30.135Z,91.93
2024-04-19T12:14:13.664Z,93.88
2024-04-19T12:16:15.768Z,93.37
2024-04-19T12:16:47.224Z,93.79
2024-04-19T12:17:30.716Z,93.58
2024-04-19T12:18:30.256Z,93.48
2024-04-19T12:19:30.141Z,92.55
2024-04-19T12:20:42.213Z,93.06
2024-04-19T12:21:30.257Z,92.24
2024-04-19T12:22:31.658Z,92.24
2024-04-19T12:23:30.271Z,92.49
2024-04-19T12:24:30.320Z,92.96
2024-04-19T12:25:30.215Z,93.27
2024-04-19T12:26:30.069Z,92.86
2024-04-19T12:27:30.145Z,93.27
2024-04-19T12:28:30.070Z,93.58
2024-04-19T12:29:29.938Z,93.27
2024-04-19T12:30:29.857Z,93.06
2024-04-19T12:31:29.833Z,92.96
2024-04-19T12:32:29.959Z,93.37
2024-04-19T12:33:29.971Z,93.88
2024-04-19T12:34:29.818Z,94.09
2024-04-19T12:35:29.795Z,93.99
2024-04-19T12:36:29.833Z,92.24
2024-04-19T12:37:29.790Z,92.24
2024-04-19T12:38:29.750Z,92.55
2024-04-19T12:39:29.766Z,92.76
2024-04-19T12:40:29.815Z,93.27
2024-04-19T12:41:29.755Z,93.16
2024-04-19T12:42:29.767Z,92.86
2024-04-19T12:43:29.725Z,91.72
2024-04-19T12:44:29.711Z,91.00
2024-04-19T12:45:29.787Z,91.52
2024-04-19T12:46:29.704Z,91.99
2024-04-19T12:47:29.782Z,92.76
2024-04-19T12:48:29.816Z,93.16
2024-04-19T12:49:29.723Z,92.65
2024-04-19T12:50:29.624Z,91.00
2024-04-19T12:51:29.660Z,90.69
2024-04-19T12:52:29.633Z,91.72
2024-04-19T12:53:29.624Z,90.39
2024-04-19T12:54:29.681Z,90.18
2024-04-19T12:55:29.581Z,91.31
2024-04-19T12:56:29.593Z,92.65